ISS weather

Wiscasset Airport
Wiscasset, Maine, United States

Public forecast

Using degrees Fahrenheit for public forecast. Weather courtesy of forecast.io.

Current aviation weather report (METAR) for Wiscasset Airport

Retrieved 2019/10/16 14:53 UTC (42 minutes ago):

KIWI 161453Z AUTO 18006KT 10SM CLR 14/09 A3006 RMK AO2 SLP180 T01390094 56015

Closest aviation forecast (TAF) to Wiscasset Airport

Closest forecast is Augusta State Airport, 21.9 nm (40.5 km) N. Retrieved 2019/10/16 12:22 UTC (3 hours ago):

TAF KAUG 161120Z 1612/1712 VRB03KT P6SM SKC FM161500 16006KT P6SM SCT250 FM170400 09010KT P6SM BKN025 OVC040 FM170600 06020G30KT 3SM RA OVC009 WS020/10050KT